sensor_id;sensor_type;location;lat;lon;timestamp;P1;durP1;ratioP1;P2;durP2;ratioP2
11042;SDS011;5574;48.786;10.120;2023-06-22T00:01:16;12.73;;;9.63;;
11042;SDS011;5574;48.786;10.120;2023-06-22T00:03:43;10.77;;;8.23;;
11042;SDS011;5574;48.786;10.120;2023-06-22T00:06:09;12.90;;;8.98;;
11042;SDS011;5574;48.786;10.120;2023-06-22T00:08:36;12.15;;;8.27;;
11042;SDS011;5574;48.786;10.120;2023-06-22T00:11:03;12.55;;;8.38;;
11042;SDS011;5574;48.786;10.120;2023-06-22T00:13:31;13.32;;;8.73;;
11042;SDS011;5574;48.786;10.120;2023-06-22T00:15:57;8.65;;;7.57;;
11042;SDS011;5574;48.786;10.120;2023-06-22T00:18:24;9.80;;;7.43;;
11042;SDS011;5574;48.786;10.120;2023-06-22T00:20:53;9.25;;;7.85;;
11042;SDS011;5574;48.786;10.120;2023-06-22T00:23:22;8.60;;;7.45;;
11042;SDS011;5574;48.786;10.120;2023-06-22T00:25:50;10.15;;;7.85;;
11042;SDS011;5574;48.786;10.120;2023-06-22T00:28:16;13.45;;;6.82;;
11042;SDS011;5574;48.786;10.120;2023-06-22T00:30:44;10.25;;;7.63;;
11042;SDS011;5574;48.786;10.120;2023-06-22T00:33:12;9.52;;;7.35;;
11042;SDS011;5574;48.786;10.120;2023-06-22T00:35:39;9.60;;;7.32;;
11042;SDS011;5574;48.786;10.120;2023-06-22T00:38:06;8.63;;;7.55;;
11042;SDS011;5574;48.786;10.120;2023-06-22T00:40:33;11.48;;;7.28;;
11042;SDS011;5574;48.786;10.120;2023-06-22T00:43:00;12.30;;;7.47;;
11042;SDS011;5574;48.786;10.120;2023-06-22T00:45:27;10.90;;;7.43;;
11042;SDS011;5574;48.786;10.120;2023-06-22T00:47:55;8.68;;;7.70;;
11042;SDS011;5574;48.786;10.120;2023-06-22T00:50:24;9.98;;;7.25;;
11042;SDS011;5574;48.786;10.120;2023-06-22T00:52:53;8.70;;;7.80;;
11042;SDS011;5574;48.786;10.120;2023-06-22T00:55:23;8.80;;;6.38;;
11042;SDS011;5574;48.786;10.120;2023-06-22T00:57:51;9.38;;;6.43;;
11042;SDS011;5574;48.786;10.120;2023-06-22T01:00:21;7.93;;;7.00;;
11042;SDS011;5574;48.786;10.120;2023-06-22T01:02:49;7.47;;;6.78;;
11042;SDS011;5574;48.786;10.120;2023-06-22T01:05:18;7.93;;;6.72;;
11042;SDS011;5574;48.786;10.120;2023-06-22T01:07:48;8.20;;;6.53;;
11042;SDS011;5574;48.786;10.120;2023-06-22T01:10:28;9.75;;;6.68;;
11042;SDS011;5574;48.786;10.120;2023-06-22T01:13:11;9.70;;;6.95;;
11042;SDS011;5574;48.786;10.120;2023-06-22T01:15:45;7.68;;;6.88;;
11042;SDS011;5574;48.786;10.120;2023-06-22T01:18:15;9.77;;;7.45;;
11042;SDS011;5574;48.786;10.120;2023-06-22T01:20:45;9.05;;;7.38;;
11042;SDS011;5574;48.786;10.120;2023-06-22T01:23:16;9.75;;;7.07;;
11042;SDS011;5574;48.786;10.120;2023-06-22T01:25:53;10.82;;;7.05;;
11042;SDS011;5574;48.786;10.120;2023-06-22T01:31:17;9.45;;;6.45;;
11042;SDS011;5574;48.786;10.120;2023-06-22T01:33:46;7.78;;;6.30;;
11042;SDS011;5574;48.786;10.120;2023-06-22T01:36:16;8.60;;;6.72;;
11042;SDS011;5574;48.786;10.120;2023-06-22T01:38:44;9.75;;;6.60;;
11042;SDS011;5574;48.786;10.120;2023-06-22T01:41:11;7.07;;;6.15;;
11042;SDS011;5574;48.786;10.120;2023-06-22T01:43:38;11.82;;;7.03;;
11042;SDS011;5574;48.786;10.120;2023-06-22T01:46:07;9.43;;;6.53;;
11042;SDS011;5574;48.786;10.120;2023-06-22T01:48:34;8.80;;;6.40;;
11042;SDS011;5574;48.786;10.120;2023-06-22T01:51:01;8.27;;;6.00;;
11042;SDS011;5574;48.786;10.120;2023-06-22T01:53:28;7.78;;;6.35;;
11042;SDS011;5574;48.786;10.120;2023-06-22T01:55:55;8.30;;;5.90;;
11042;SDS011;5574;48.786;10.120;2023-06-22T01:58:23;7.50;;;6.43;;
11042;SDS011;5574;48.786;10.120;2023-06-22T02:00:53;7.32;;;6.50;;
11042;SDS011;5574;48.786;10.120;2023-06-22T02:03:28;10.38;;;6.35;;
11042;SDS011;5574;48.786;10.120;2023-06-22T02:05:58;8.05;;;6.90;;
11042;SDS011;5574;48.786;10.120;2023-06-22T02:08:29;7.95;;;6.28;;
11042;SDS011;5574;48.786;10.120;2023-06-22T02:11:01;10.13;;;6.88;;
11042;SDS011;5574;48.786;10.120;2023-06-22T02:13:29;9.38;;;6.68;;
11042;SDS011;5574;48.786;10.120;2023-06-22T02:15:57;14.23;;;6.75;;
11042;SDS011;5574;48.786;10.120;2023-06-22T02:18:24;9.70;;;5.82;;
11042;SDS011;5574;48.786;10.120;2023-06-22T02:20:52;6.97;;;6.25;;
11042;SDS011;5574;48.786;10.120;2023-06-22T02:23:18;7.15;;;5.65;;
11042;SDS011;5574;48.786;10.120;2023-06-22T02:25:45;8.00;;;6.03;;
11042;SDS011;5574;48.786;10.120;2023-06-22T02:28:12;6.82;;;5.70;;
11042;SDS011;5574;48.786;10.120;2023-06-22T02:30:38;8.32;;;6.40;;
11042;SDS011;5574;48.786;10.120;2023-06-22T02:33:05;8.32;;;6.13;;
11042;SDS011;5574;48.786;10.120;2023-06-22T02:35:32;8.15;;;6.35;;
11042;SDS011;5574;48.786;10.120;2023-06-22T02:38:02;7.05;;;6.15;;
11042;SDS011;5574;48.786;10.120;2023-06-22T02:40:29;7.07;;;5.75;;
11042;SDS011;5574;48.786;10.120;2023-06-22T02:42:57;7.03;;;6.20;;
11042;SDS011;5574;48.786;10.120;2023-06-22T02:45:26;11.00;;;6.30;;
11042;SDS011;5574;48.786;10.120;2023-06-22T02:47:53;13.52;;;6.22;;
11042;SDS011;5574;48.786;10.120;2023-06-22T02:50:20;10.05;;;5.90;;
11042;SDS011;5574;48.786;10.120;2023-06-22T02:52:47;6.38;;;5.63;;
11042;SDS011;5574;48.786;10.120;2023-06-22T02:55:15;10.90;;;6.00;;
11042;SDS011;5574;48.786;10.120;2023-06-22T02:57:42;9.27;;;5.68;;
11042;SDS011;5574;48.786;10.120;2023-06-22T03:00:10;7.15;;;5.85;;
11042;SDS011;5574;48.786;10.120;2023-06-22T03:02:42;8.32;;;6.10;;
11042;SDS011;5574;48.786;10.120;2023-06-22T03:05:09;6.32;;;5.60;;
11042;SDS011;5574;48.786;10.120;2023-06-22T03:07:38;6.15;;;5.20;;
11042;SDS011;5574;48.786;10.120;2023-06-22T03:10:05;9.82;;;5.50;;
11042;SDS011;5574;48.786;10.120;2023-06-22T03:12:35;6.10;;;5.47;;
11042;SDS011;5574;48.786;10.120;2023-06-22T03:15:02;8.27;;;5.43;;
11042;SDS011;5574;48.786;10.120;2023-06-22T03:17:30;6.53;;;5.32;;
11042;SDS011;5574;48.786;10.120;2023-06-22T03:19:56;6.70;;;5.75;;
11042;SDS011;5574;48.786;10.120;2023-06-22T03:22:23;7.30;;;5.90;;
11042;SDS011;5574;48.786;10.120;2023-06-22T03:24:50;7.03;;;5.97;;
11042;SDS011;5574;48.786;10.120;2023-06-22T03:27:16;8.93;;;6.25;;
11042;SDS011;5574;48.786;10.120;2023-06-22T03:29:44;8.07;;;6.88;;
11042;SDS011;5574;48.786;10.120;2023-06-22T03:32:11;11.13;;;6.40;;
11042;SDS011;5574;48.786;10.120;2023-06-22T03:34:38;10.70;;;6.18;;
11042;SDS011;5574;48.786;10.120;2023-06-22T03:37:04;10.88;;;6.85;;
11042;SDS011;5574;48.786;10.120;2023-06-22T03:39:31;12.77;;;7.32;;
11042;SDS011;5574;48.786;10.120;2023-06-22T03:41:58;8.57;;;6.57;;
11042;SDS011;5574;48.786;10.120;2023-06-22T03:44:25;11.20;;;7.30;;
11042;SDS011;5574;48.786;10.120;2023-06-22T03:46:53;8.00;;;7.20;;
11042;SDS011;5574;48.786;10.120;2023-06-22T03:49:19;8.13;;;7.18;;
11042;SDS011;5574;48.786;10.120;2023-06-22T03:51:46;8.35;;;6.72;;
11042;SDS011;5574;48.786;10.120;2023-06-22T03:54:13;9.02;;;6.95;;
11042;SDS011;5574;48.786;10.120;2023-06-22T03:56:39;9.90;;;7.13;;
11042;SDS011;5574;48.786;10.120;2023-06-22T03:59:06;11.13;;;6.90;;
11042;SDS011;5574;48.786;10.120;2023-06-22T04:01:33;8.98;;;6.70;;
11042;SDS011;5574;48.786;10.120;2023-06-22T04:04:01;8.68;;;7.22;;
11042;SDS011;5574;48.786;10.120;2023-06-22T04:06:27;9.70;;;7.40;;
11042;SDS011;5574;48.786;10.120;2023-06-22T04:08:54;10.25;;;7.25;;
11042;SDS011;5574;48.786;10.120;2023-06-22T04:11:21;9.40;;;7.60;;
11042;SDS011;5574;48.786;10.120;2023-06-22T04:13:47;10.30;;;7.60;;
11042;SDS011;5574;48.786;10.120;2023-06-22T04:16:16;8.27;;;7.43;;
11042;SDS011;5574;48.786;10.120;2023-06-22T04:18:43;7.80;;;7.00;;
11042;SDS011;5574;48.786;10.120;2023-06-22T04:21:11;8.30;;;7.43;;
11042;SDS011;5574;48.786;10.120;2023-06-22T04:23:37;9.90;;;7.50;;
11042;SDS011;5574;48.786;10.120;2023-06-22T04:26:04;11.88;;;7.45;;
11042;SDS011;5574;48.786;10.120;2023-06-22T04:28:31;11.57;;;8.00;;
11042;SDS011;5574;48.786;10.120;2023-06-22T04:31:00;9.30;;;7.22;;
11042;SDS011;5574;48.786;10.120;2023-06-22T04:33:27;10.77;;;7.15;;
11042;SDS011;5574;48.786;10.120;2023-06-22T04:35:54;9.18;;;7.30;;
11042;SDS011;5574;48.786;10.120;2023-06-22T04:38:23;12.38;;;7.80;;
11042;SDS011;5574;48.786;10.120;2023-06-22T04:40:50;9.50;;;7.38;;
11042;SDS011;5574;48.786;10.120;2023-06-22T04:43:18;12.18;;;7.13;;
11042;SDS011;5574;48.786;10.120;2023-06-22T04:45:45;12.57;;;7.57;;
11042;SDS011;5574;48.786;10.120;2023-06-22T04:48:17;8.48;;;7.13;;
11042;SDS011;5574;48.786;10.120;2023-06-22T04:50:43;12.20;;;8.00;;
11042;SDS011;5574;48.786;10.120;2023-06-22T04:53:10;16.38;;;10.65;;
11042;SDS011;5574;48.786;10.120;2023-06-22T04:55:39;12.57;;;9.55;;
11042;SDS011;5574;48.786;10.120;2023-06-22T04:58:06;9.35;;;7.97;;
11042;SDS011;5574;48.786;10.120;2023-06-22T05:00:33;10.60;;;8.50;;
11042;SDS011;5574;48.786;10.120;2023-06-22T05:03:01;10.88;;;7.90;;
11042;SDS011;5574;48.786;10.120;2023-06-22T05:05:28;11.02;;;7.85;;
11042;SDS011;5574;48.786;10.120;2023-06-22T05:07:56;10.60;;;8.40;;
11042;SDS011;5574;48.786;10.120;2023-06-22T05:10:25;9.90;;;7.53;;
11042;SDS011;5574;48.786;10.120;2023-06-22T05:12:53;10.60;;;7.72;;
11042;SDS011;5574;48.786;10.120;2023-06-22T05:15:20;11.57;;;7.55;;
11042;SDS011;5574;48.786;10.120;2023-06-22T05:17:48;11.15;;;7.65;;
11042;SDS011;5574;48.786;10.120;2023-06-22T05:20:14;10.38;;;7.75;;
11042;SDS011;5574;48.786;10.120;2023-06-22T05:22:43;8.75;;;7.72;;
11042;SDS011;5574;48.786;10.120;2023-06-22T05:25:10;7.97;;;7.05;;
11042;SDS011;5574;48.786;10.120;2023-06-22T05:27:37;8.85;;;7.05;;
11042;SDS011;5574;48.786;10.120;2023-06-22T05:30:07;8.48;;;7.43;;
11042;SDS011;5574;48.786;10.120;2023-06-22T05:32:34;11.85;;;7.63;;
11042;SDS011;5574;48.786;10.120;2023-06-22T05:35:01;15.65;;;7.30;;
11042;SDS011;5574;48.786;10.120;2023-06-22T05:37:28;7.35;;;6.50;;
11042;SDS011;5574;48.786;10.120;2023-06-22T05:39:55;9.77;;;6.63;;
11042;SDS011;5574;48.786;10.120;2023-06-22T05:42:22;12.35;;;7.30;;
11042;SDS011;5574;48.786;10.120;2023-06-22T05:44:50;10.30;;;7.18;;
11042;SDS011;5574;48.786;10.120;2023-06-22T05:47:19;9.43;;;6.40;;
11042;SDS011;5574;48.786;10.120;2023-06-22T05:49:47;6.25;;;5.43;;
11042;SDS011;5574;48.786;10.120;2023-06-22T05:52:14;6.70;;;6.00;;
11042;SDS011;5574;48.786;10.120;2023-06-22T05:54:41;6.55;;;5.60;;
11042;SDS011;5574;48.786;10.120;2023-06-22T05:57:08;8.32;;;5.55;;
11042;SDS011;5574;48.786;10.120;2023-06-22T05:59:34;8.93;;;6.13;;
11042;SDS011;5574;48.786;10.120;2023-06-22T06:02:01;7.63;;;6.13;;
11042;SDS011;5574;48.786;10.120;2023-06-22T06:04:29;7.28;;;5.30;;
11042;SDS011;5574;48.786;10.120;2023-06-22T06:06:56;7.53;;;5.72;;
11042;SDS011;5574;48.786;10.120;2023-06-22T06:09:23;6.22;;;5.00;;
11042;SDS011;5574;48.786;10.120;2023-06-22T06:11:49;7.65;;;5.45;;
11042;SDS011;5574;48.786;10.120;2023-06-22T06:14:16;7.53;;;5.28;;
11042;SDS011;5574;48.786;10.120;2023-06-22T06:16:43;7.00;;;4.78;;
11042;SDS011;5574;48.786;10.120;2023-06-22T06:19:09;7.57;;;4.43;;
11042;SDS011;5574;48.786;10.120;2023-06-22T06:21:37;5.10;;;4.47;;
11042;SDS011;5574;48.786;10.120;2023-06-22T06:24:04;6.63;;;4.65;;
11042;SDS011;5574;48.786;10.120;2023-06-22T06:26:31;5.93;;;4.15;;
11042;SDS011;5574;48.786;10.120;2023-06-22T06:29:01;6.63;;;4.53;;
11042;SDS011;5574;48.786;10.120;2023-06-22T06:31:28;5.88;;;4.38;;
11042;SDS011;5574;48.786;10.120;2023-06-22T06:33:55;17.67;;;5.13;;
11042;SDS011;5574;48.786;10.120;2023-06-22T06:36:22;5.20;;;4.10;;
11042;SDS011;5574;48.786;10.120;2023-06-22T06:38:50;4.93;;;3.88;;
11042;SDS011;5574;48.786;10.120;2023-06-22T06:41:16;5.35;;;4.45;;
11042;SDS011;5574;48.786;10.120;2023-06-22T06:43:43;7.57;;;4.25;;
11042;SDS011;5574;48.786;10.120;2023-06-22T06:46:10;6.88;;;4.00;;
11042;SDS011;5574;48.786;10.120;2023-06-22T06:48:37;6.10;;;3.88;;
11042;SDS011;5574;48.786;10.120;2023-06-22T06:51:04;5.68;;;3.90;;
11042;SDS011;5574;48.786;10.120;2023-06-22T06:53:34;7.97;;;3.55;;
11042;SDS011;5574;48.786;10.120;2023-06-22T06:56:02;8.00;;;3.95;;
11042;SDS011;5574;48.786;10.120;2023-06-22T06:58:30;3.92;;;3.50;;
11042;SDS011;5574;48.786;10.120;2023-06-22T07:00:57;5.82;;;3.45;;
11042;SDS011;5574;48.786;10.120;2023-06-22T07:03:24;7.00;;;3.80;;
11042;SDS011;5574;48.786;10.120;2023-06-22T07:05:51;7.15;;;3.72;;
11042;SDS011;5574;48.786;10.120;2023-06-22T07:08:17;6.45;;;3.67;;
11042;SDS011;5574;48.786;10.120;2023-06-22T07:10:44;12.63;;;4.82;;
11042;SDS011;5574;48.786;10.120;2023-06-22T07:13:12;9.82;;;3.60;;
11042;SDS011;5574;48.786;10.120;2023-06-22T07:15:39;11.32;;;4.07;;
11042;SDS011;5574;48.786;10.120;2023-06-22T07:18:05;8.95;;;4.25;;
11042;SDS011;5574;48.786;10.120;2023-06-22T07:20:32;9.13;;;3.80;;
11042;SDS011;5574;48.786;10.120;2023-06-22T07:22:59;15.52;;;4.53;;
11042;SDS011;5574;48.786;10.120;2023-06-22T07:25:26;8.57;;;3.50;;
11042;SDS011;5574;48.786;10.120;2023-06-22T07:28:02;3.90;;;3.08;;
11042;SDS011;5574;48.786;10.120;2023-06-22T07:30:32;5.95;;;3.50;;
11042;SDS011;5574;48.786;10.120;2023-06-22T07:32:59;6.30;;;3.53;;
11042;SDS011;5574;48.786;10.120;2023-06-22T07:35:29;9.27;;;3.80;;
11042;SDS011;5574;48.786;10.120;2023-06-22T07:37:56;7.25;;;3.95;;
11042;SDS011;5574;48.786;10.120;2023-06-22T07:40:22;5.85;;;3.28;;
11042;SDS011;5574;48.786;10.120;2023-06-22T07:42:49;8.38;;;3.78;;
11042;SDS011;5574;48.786;10.120;2023-06-22T07:45:16;9.00;;;4.00;;
11042;SDS011;5574;48.786;10.120;2023-06-22T07:47:45;5.55;;;3.83;;
11042;SDS011;5574;48.786;10.120;2023-06-22T07:50:11;5.68;;;3.75;;
11042;SDS011;5574;48.786;10.120;2023-06-22T07:52:38;10.63;;;4.03;;
11042;SDS011;5574;48.786;10.120;2023-06-22T07:55:05;7.47;;;4.03;;
11042;SDS011;5574;48.786;10.120;2023-06-22T07:57:32;7.50;;;3.63;;
11042;SDS011;5574;48.786;10.120;2023-06-22T07:59:59;6.38;;;3.88;;
11042;SDS011;5574;48.786;10.120;2023-06-22T08:02:26;6.38;;;4.03;;
11042;SDS011;5574;48.786;10.120;2023-06-22T08:04:54;7.97;;;3.83;;
11042;SDS011;5574;48.786;10.120;2023-06-22T08:07:20;8.10;;;4.10;;
11042;SDS011;5574;48.786;10.120;2023-06-22T08:09:47;17.23;;;5.13;;
11042;SDS011;5574;48.786;10.120;2023-06-22T08:12:14;7.20;;;4.35;;
11042;SDS011;5574;48.786;10.120;2023-06-22T08:14:41;8.85;;;4.03;;
11042;SDS011;5574;48.786;10.120;2023-06-22T08:17:09;10.82;;;4.43;;
11042;SDS011;5574;48.786;10.120;2023-06-22T08:19:36;6.20;;;3.90;;
11042;SDS011;5574;48.786;10.120;2023-06-22T08:22:05;7.05;;;3.95;;
11042;SDS011;5574;48.786;10.120;2023-06-22T08:24:31;6.53;;;4.13;;
11042;SDS011;5574;48.786;10.120;2023-06-22T08:26:58;13.60;;;5.85;;
11042;SDS011;5574;48.786;10.120;2023-06-22T08:29:25;9.98;;;4.43;;
11042;SDS011;5574;48.786;10.120;2023-06-22T08:31:52;8.15;;;4.63;;
11042;SDS011;5574;48.786;10.120;2023-06-22T08:34:18;8.40;;;4.28;;
11042;SDS011;5574;48.786;10.120;2023-06-22T08:36:48;7.60;;;4.63;;
11042;SDS011;5574;48.786;10.120;2023-06-22T08:39:18;11.40;;;4.63;;
11042;SDS011;5574;48.786;10.120;2023-06-22T08:41:46;9.00;;;4.70;;
11042;SDS011;5574;48.786;10.120;2023-06-22T08:44:12;5.75;;;4.45;;
11042;SDS011;5574;48.786;10.120;2023-06-22T08:46:39;11.40;;;4.75;;
11042;SDS011;5574;48.786;10.120;2023-06-22T08:49:06;9.40;;;4.72;;
11042;SDS011;5574;48.786;10.120;2023-06-22T08:51:34;11.15;;;5.03;;
11042;SDS011;5574;48.786;10.120;2023-06-22T08:54:01;16.73;;;5.38;;
11042;SDS011;5574;48.786;10.120;2023-06-22T08:56:29;7.90;;;5.15;;
11042;SDS011;5574;48.786;10.120;2023-06-22T08:58:56;11.55;;;5.43;;
11042;SDS011;5574;48.786;10.120;2023-06-22T09:01:22;10.98;;;4.65;;
11042;SDS011;5574;48.786;10.120;2023-06-22T09:03:49;10.00;;;4.78;;
11042;SDS011;5574;48.786;10.120;2023-06-22T09:06:19;6.55;;;4.70;;
11042;SDS011;5574;48.786;10.120;2023-06-22T09:08:46;9.48;;;4.95;;
11042;SDS011;5574;48.786;10.120;2023-06-22T09:11:13;7.20;;;4.63;;
11042;SDS011;5574;48.786;10.120;2023-06-22T09:13:41;8.13;;;4.20;;
11042;SDS011;5574;48.786;10.120;2023-06-22T09:16:07;9.43;;;5.45;;
11042;SDS011;5574;48.786;10.120;2023-06-22T09:18:34;10.63;;;4.63;;
11042;SDS011;5574;48.786;10.120;2023-06-22T09:21:01;10.70;;;5.28;;
11042;SDS011;5574;48.786;10.120;2023-06-22T09:23:28;10.23;;;4.97;;
11042;SDS011;5574;48.786;10.120;2023-06-22T09:25:55;9.55;;;4.88;;
11042;SDS011;5574;48.786;10.120;2023-06-22T09:28:21;12.82;;;5.15;;
11042;SDS011;5574;48.786;10.120;2023-06-22T09:30:50;11.05;;;4.85;;
11042;SDS011;5574;48.786;10.120;2023-06-22T09:33:23;17.02;;;5.57;;
11042;SDS011;5574;48.786;10.120;2023-06-22T09:35:49;9.65;;;5.20;;
11042;SDS011;5574;48.786;10.120;2023-06-22T09:38:16;17.95;;;5.90;;
11042;SDS011;5574;48.786;10.120;2023-06-22T09:40:43;16.52;;;5.82;;
11042;SDS011;5574;48.786;10.120;2023-06-22T09:43:10;8.55;;;5.35;;
11042;SDS011;5574;48.786;10.120;2023-06-22T09:45:37;17.05;;;6.20;;
11042;SDS011;5574;48.786;10.120;2023-06-22T09:48:05;25.67;;;6.45;;
11042;SDS011;5574;48.786;10.120;2023-06-22T09:50:32;12.18;;;5.57;;
11042;SDS011;5574;48.786;10.120;2023-06-22T09:52:59;11.90;;;5.50;;
11042;SDS011;5574;48.786;10.120;2023-06-22T09:55:25;11.43;;;5.70;;
11042;SDS011;5574;48.786;10.120;2023-06-22T09:57:52;11.27;;;6.00;;
11042;SDS011;5574;48.786;10.120;2023-06-22T10:00:19;15.82;;;5.78;;
11042;SDS011;5574;48.786;10.120;2023-06-22T10:02:46;12.13;;;6.43;;
11042;SDS011;5574;48.786;10.120;2023-06-22T10:05:15;11.93;;;5.72;;
11042;SDS011;5574;48.786;10.120;2023-06-22T10:07:42;14.98;;;6.13;;
11042;SDS011;5574;48.786;10.120;2023-06-22T10:10:09;16.00;;;6.18;;
11042;SDS011;5574;48.786;10.120;2023-06-22T10:12:36;17.58;;;6.40;;
11042;SDS011;5574;48.786;10.120;2023-06-22T10:15:03;10.98;;;6.18;;
11042;SDS011;5574;48.786;10.120;2023-06-22T10:17:30;10.30;;;5.65;;
11042;SDS011;5574;48.786;10.120;2023-06-22T10:19:57;9.02;;;5.72;;
11042;SDS011;5574;48.786;10.120;2023-06-22T10:22:24;28.70;;;7.28;;
11042;SDS011;5574;48.786;10.120;2023-06-22T10:24:51;13.15;;;5.88;;
11042;SDS011;5574;48.786;10.120;2023-06-22T10:27:18;9.65;;;5.53;;
11042;SDS011;5574;48.786;10.120;2023-06-22T10:29:45;12.35;;;6.40;;
11042;SDS011;5574;48.786;10.120;2023-06-22T10:32:11;30.27;;;8.05;;
11042;SDS011;5574;48.786;10.120;2023-06-22T10:34:38;15.85;;;6.28;;
11042;SDS011;5574;48.786;10.120;2023-06-22T10:37:05;10.55;;;5.60;;
11042;SDS011;5574;48.786;10.120;2023-06-22T10:39:33;10.82;;;5.57;;
11042;SDS011;5574;48.786;10.120;2023-06-22T10:42:00;11.73;;;6.13;;
11042;SDS011;5574;48.786;10.120;2023-06-22T10:44:26;21.08;;;6.30;;
11042;SDS011;5574;48.786;10.120;2023-06-22T10:46:53;8.02;;;5.78;;
11042;SDS011;5574;48.786;10.120;2023-06-22T10:49:20;14.52;;;5.75;;
11042;SDS011;5574;48.786;10.120;2023-06-22T10:51:46;17.35;;;5.82;;
11042;SDS011;5574;48.786;10.120;2023-06-22T10:54:13;10.68;;;5.80;;
11042;SDS011;5574;48.786;10.120;2023-06-22T10:56:43;10.55;;;6.50;;
11042;SDS011;5574;48.786;10.120;2023-06-22T10:59:10;9.20;;;5.57;;
11042;SDS011;5574;48.786;10.120;2023-06-22T11:01:37;8.90;;;5.18;;
11042;SDS011;5574;48.786;10.120;2023-06-22T11:04:03;13.05;;;5.80;;
11042;SDS011;5574;48.786;10.120;2023-06-22T11:06:30;11.57;;;5.45;;
11042;SDS011;5574;48.786;10.120;2023-06-22T11:08:57;10.02;;;5.70;;
11042;SDS011;5574;48.786;10.120;2023-06-22T11:11:25;10.18;;;5.55;;
11042;SDS011;5574;48.786;10.120;2023-06-22T11:13:53;10.70;;;5.35;;
11042;SDS011;5574;48.786;10.120;2023-06-22T11:16:20;12.02;;;5.40;;
11042;SDS011;5574;48.786;10.120;2023-06-22T11:18:46;13.27;;;6.30;;
11042;SDS011;5574;48.786;10.120;2023-06-22T11:21:13;12.30;;;5.70;;
11042;SDS011;5574;48.786;10.120;2023-06-22T11:23:41;12.38;;;5.13;;
11042;SDS011;5574;48.786;10.120;2023-06-22T11:26:08;11.10;;;5.68;;
11042;SDS011;5574;48.786;10.120;2023-06-22T11:28:34;20.38;;;6.70;;
11042;SDS011;5574;48.786;10.120;2023-06-22T11:31:02;10.75;;;5.82;;
11042;SDS011;5574;48.786;10.120;2023-06-22T11:33:29;8.65;;;5.72;;
11042;SDS011;5574;48.786;10.120;2023-06-22T11:35:56;8.98;;;5.80;;
11042;SDS011;5574;48.786;10.120;2023-06-22T11:38:23;13.23;;;6.07;;
11042;SDS011;5574;48.786;10.120;2023-06-22T11:40:49;12.02;;;5.82;;
11042;SDS011;5574;48.786;10.120;2023-06-22T11:43:16;10.52;;;5.68;;
11042;SDS011;5574;48.786;10.120;2023-06-22T11:45:43;13.02;;;5.80;;
11042;SDS011;5574;48.786;10.120;2023-06-22T11:48:11;13.13;;;6.32;;
11042;SDS011;5574;48.786;10.120;2023-06-22T11:50:37;17.13;;;6.30;;
11042;SDS011;5574;48.786;10.120;2023-06-22T11:53:04;16.95;;;6.05;;
11042;SDS011;5574;48.786;10.120;2023-06-22T11:55:31;15.45;;;6.72;;
11042;SDS011;5574;48.786;10.120;2023-06-22T11:57:57;12.18;;;5.95;;
11042;SDS011;5574;48.786;10.120;2023-06-22T12:00:28;14.13;;;6.35;;
11042;SDS011;5574;48.786;10.120;2023-06-22T12:02:55;10.27;;;5.50;;
11042;SDS011;5574;48.786;10.120;2023-06-22T12:05:23;12.07;;;6.13;;
11042;SDS011;5574;48.786;10.120;2023-06-22T12:07:50;14.27;;;6.00;;
11042;SDS011;5574;48.786;10.120;2023-06-22T12:10:20;11.27;;;6.00;;
11042;SDS011;5574;48.786;10.120;2023-06-22T12:12:46;9.40;;;5.63;;
11042;SDS011;5574;48.786;10.120;2023-06-22T12:15:13;10.23;;;6.25;;
11042;SDS011;5574;48.786;10.120;2023-06-22T12:17:40;16.42;;;6.50;;
11042;SDS011;5574;48.786;10.120;2023-06-22T12:20:07;17.27;;;6.82;;
11042;SDS011;5574;48.786;10.120;2023-06-22T12:22:36;10.27;;;6.10;;
11042;SDS011;5574;48.786;10.120;2023-06-22T12:25:03;21.05;;;6.85;;
11042;SDS011;5574;48.786;10.120;2023-06-22T12:27:31;10.45;;;5.88;;
11042;SDS011;5574;48.786;10.120;2023-06-22T12:29:57;17.80;;;6.18;;
11042;SDS011;5574;48.786;10.120;2023-06-22T12:32:24;8.68;;;6.00;;
11042;SDS011;5574;48.786;10.120;2023-06-22T12:34:51;11.63;;;6.00;;
11042;SDS011;5574;48.786;10.120;2023-06-22T12:37:18;11.02;;;5.80;;
11042;SDS011;5574;48.786;10.120;2023-06-22T12:39:46;10.73;;;6.20;;
11042;SDS011;5574;48.786;10.120;2023-06-22T12:42:13;11.40;;;5.75;;
11042;SDS011;5574;48.786;10.120;2023-06-22T12:44:39;11.68;;;6.18;;
11042;SDS011;5574;48.786;10.120;2023-06-22T12:47:06;19.58;;;6.72;;
11042;SDS011;5574;48.786;10.120;2023-06-22T12:49:33;12.80;;;6.15;;
11042;SDS011;5574;48.786;10.120;2023-06-22T12:52:00;11.50;;;6.30;;
11042;SDS011;5574;48.786;10.120;2023-06-22T12:54:27;10.93;;;6.32;;
11042;SDS011;5574;48.786;10.120;2023-06-22T12:56:55;13.93;;;6.60;;
11042;SDS011;5574;48.786;10.120;2023-06-22T12:59:22;21.50;;;7.18;;
11042;SDS011;5574;48.786;10.120;2023-06-22T13:01:49;21.10;;;6.47;;
11042;SDS011;5574;48.786;10.120;2023-06-22T13:04:15;11.95;;;6.18;;
11042;SDS011;5574;48.786;10.120;2023-06-22T13:06:43;14.15;;;6.55;;
11042;SDS011;5574;48.786;10.120;2023-06-22T13:09:12;13.60;;;6.70;;
11042;SDS011;5574;48.786;10.120;2023-06-22T13:11:40;22.08;;;6.93;;
11042;SDS011;5574;48.786;10.120;2023-06-22T13:14:08;10.95;;;6.40;;
11042;SDS011;5574;48.786;10.120;2023-06-22T13:16:34;8.32;;;6.35;;
11042;SDS011;5574;48.786;10.120;2023-06-22T13:19:01;18.13;;;6.85;;
11042;SDS011;5574;48.786;10.120;2023-06-22T13:21:28;14.20;;;6.60;;
11042;SDS011;5574;48.786;10.120;2023-06-22T13:23:56;12.25;;;6.47;;
11042;SDS011;5574;48.786;10.120;2023-06-22T13:26:22;12.55;;;6.70;;
11042;SDS011;5574;48.786;10.120;2023-06-22T13:28:49;13.40;;;6.80;;
11042;SDS011;5574;48.786;10.120;2023-06-22T13:31:17;11.40;;;7.00;;
11042;SDS011;5574;48.786;10.120;2023-06-22T13:33:44;33.03;;;8.45;;
11042;SDS011;5574;48.786;10.120;2023-06-22T13:36:12;17.45;;;7.82;;
11042;SDS011;5574;48.786;10.120;2023-06-22T13:38:39;16.40;;;7.30;;
11042;SDS011;5574;48.786;10.120;2023-06-22T13:41:06;17.30;;;6.80;;
11042;SDS011;5574;48.786;10.120;2023-06-22T13:43:32;14.65;;;7.57;;
11042;SDS011;5574;48.786;10.120;2023-06-22T13:45:59;12.10;;;6.65;;
11042;SDS011;5574;48.786;10.120;2023-06-22T13:48:27;23.10;;;7.53;;
11042;SDS011;5574;48.786;10.120;2023-06-22T13:50:54;17.23;;;7.18;;
11042;SDS011;5574;48.786;10.120;2023-06-22T13:53:21;11.40;;;6.72;;
11042;SDS011;5574;48.786;10.120;2023-06-22T13:55:47;12.15;;;6.40;;
11042;SDS011;5574;48.786;10.120;2023-06-22T13:58:14;13.23;;;6.55;;
11042;SDS011;5574;48.786;10.120;2023-06-22T14:00:41;15.55;;;6.65;;
11042;SDS011;5574;48.786;10.120;2023-06-22T14:03:07;10.80;;;6.43;;
11042;SDS011;5574;48.786;10.120;2023-06-22T14:05:35;10.85;;;6.20;;
11042;SDS011;5574;48.786;10.120;2023-06-22T14:08:02;9.82;;;6.40;;
11042;SDS011;5574;48.786;10.120;2023-06-22T14:10:29;11.88;;;7.10;;
11042;SDS011;5574;48.786;10.120;2023-06-22T14:12:55;12.35;;;6.68;;
11042;SDS011;5574;48.786;10.120;2023-06-22T14:15:22;17.08;;;6.90;;
11042;SDS011;5574;48.786;10.120;2023-06-22T14:17:49;11.45;;;6.43;;
11042;SDS011;5574;48.786;10.120;2023-06-22T14:20:15;13.95;;;6.75;;
11042;SDS011;5574;48.786;10.120;2023-06-22T14:22:43;11.80;;;6.88;;
11042;SDS011;5574;48.786;10.120;2023-06-22T14:25:10;11.10;;;7.45;;
11042;SDS011;5574;48.786;10.120;2023-06-22T14:27:37;9.07;;;6.15;;
11042;SDS011;5574;48.786;10.120;2023-06-22T14:30:04;10.65;;;5.53;;
11042;SDS011;5574;48.786;10.120;2023-06-22T14:32:31;14.38;;;7.75;;
11042;SDS011;5574;48.786;10.120;2023-06-22T14:34:58;14.52;;;6.93;;
11042;SDS011;5574;48.786;10.120;2023-06-22T14:37:25;24.40;;;7.03;;
11042;SDS011;5574;48.786;10.120;2023-06-22T14:39:52;16.77;;;7.00;;
11042;SDS011;5574;48.786;10.120;2023-06-22T14:42:19;13.95;;;6.18;;
11042;SDS011;5574;48.786;10.120;2023-06-22T14:44:47;13.95;;;6.13;;